sensor_id;sensor_type;location;lat;lon;timestamp;P1;durP1;ratioP1;P2;durP2;ratioP2
36411;SDS011;22445;52.100;5.176;2023-09-19T00:00:19;10.07;;;1.85;;
36411;SDS011;22445;52.100;5.176;2023-09-19T00:02:52;13.45;;;2.55;;
36411;SDS011;22445;52.100;5.176;2023-09-19T00:05:18;6.13;;;1.70;;
36411;SDS011;22445;52.100;5.176;2023-09-19T00:07:49;7.20;;;1.63;;
36411;SDS011;22445;52.100;5.176;2023-09-19T00:10:16;10.40;;;2.53;;
36411;SDS011;22445;52.100;5.176;2023-09-19T00:12:44;7.70;;;1.90;;
36411;SDS011;22445;52.100;5.176;2023-09-19T00:15:11;10.48;;;2.83;;
36411;SDS011;22445;52.100;5.176;2023-09-19T00:17:36;5.85;;;1.80;;
36411;SDS011;22445;52.100;5.176;2023-09-19T00:20:02;5.82;;;1.92;;
36411;SDS011;22445;52.100;5.176;2023-09-19T00:22:40;5.53;;;1.75;;
36411;SDS011;22445;52.100;5.176;2023-09-19T00:25:07;9.07;;;2.03;;
36411;SDS011;22445;52.100;5.176;2023-09-19T00:27:33;6.30;;;1.60;;
36411;SDS011;22445;52.100;5.176;2023-09-19T00:29:59;8.13;;;1.85;;
36411;SDS011;22445;52.100;5.176;2023-09-19T00:32:25;10.25;;;2.38;;
36411;SDS011;22445;52.100;5.176;2023-09-19T00:34:56;8.48;;;2.03;;
36411;SDS011;22445;52.100;5.176;2023-09-19T00:37:22;10.48;;;2.20;;
36411;SDS011;22445;52.100;5.176;2023-09-19T00:39:48;8.93;;;1.77;;
36411;SDS011;22445;52.100;5.176;2023-09-19T00:42:20;10.32;;;2.60;;
36411;SDS011;22445;52.100;5.176;2023-09-19T00:44:46;8.13;;;1.67;;
36411;SDS011;22445;52.100;5.176;2023-09-19T00:47:12;9.02;;;1.63;;
36411;SDS011;22445;52.100;5.176;2023-09-19T00:49:45;5.85;;;1.60;;
36411;SDS011;22445;52.100;5.176;2023-09-19T00:52:17;5.22;;;2.20;;
36411;SDS011;22445;52.100;5.176;2023-09-19T00:54:46;7.70;;;1.48;;
36411;SDS011;22445;52.100;5.176;2023-09-19T00:57:13;7.65;;;1.90;;
36411;SDS011;22445;52.100;5.176;2023-09-19T00:59:40;10.57;;;2.30;;
36411;SDS011;22445;52.100;5.176;2023-09-19T01:02:07;4.35;;;1.73;;
36411;SDS011;22445;52.100;5.176;2023-09-19T01:04:33;5.80;;;1.50;;
36411;SDS011;22445;52.100;5.176;2023-09-19T01:06:59;7.47;;;1.80;;
36411;SDS011;22445;52.100;5.176;2023-09-19T01:09:24;6.35;;;1.77;;
36411;SDS011;22445;52.100;5.176;2023-09-19T01:11:53;7.50;;;1.48;;
36411;SDS011;22445;52.100;5.176;2023-09-19T01:17:32;5.03;;;1.60;;
36411;SDS011;22445;52.100;5.176;2023-09-19T01:28:39;10.27;;;2.00;;
36411;SDS011;22445;52.100;5.176;2023-09-19T01:31:12;4.88;;;1.45;;
36411;SDS011;22445;52.100;5.176;2023-09-19T01:36:28;5.88;;;1.40;;
36411;SDS011;22445;52.100;5.176;2023-09-19T01:38:56;9.30;;;1.98;;
36411;SDS011;22445;52.100;5.176;2023-09-19T01:41:30;8.38;;;1.90;;
36411;SDS011;22445;52.100;5.176;2023-09-19T01:44:06;8.02;;;1.92;;
36411;SDS011;22445;52.100;5.176;2023-09-19T01:46:35;5.38;;;1.10;;
36411;SDS011;22445;52.100;5.176;2023-09-19T01:52:13;5.22;;;1.90;;
36411;SDS011;22445;52.100;5.176;2023-09-19T01:54:46;13.98;;;2.35;;
36411;SDS011;22445;52.100;5.176;2023-09-19T01:57:16;8.57;;;2.13;;
36411;SDS011;22445;52.100;5.176;2023-09-19T01:59:50;7.65;;;1.58;;
36411;SDS011;22445;52.100;5.176;2023-09-19T02:02:21;6.00;;;1.45;;
36411;SDS011;22445;52.100;5.176;2023-09-19T02:04:48;9.48;;;1.45;;
36411;SDS011;22445;52.100;5.176;2023-09-19T02:07:15;5.57;;;1.40;;
36411;SDS011;22445;52.100;5.176;2023-09-19T02:09:42;6.00;;;1.77;;
36411;SDS011;22445;52.100;5.176;2023-09-19T02:12:08;4.65;;;1.60;;
36411;SDS011;22445;52.100;5.176;2023-09-19T02:14:34;12.23;;;2.28;;
36411;SDS011;22445;52.100;5.176;2023-09-19T02:17:04;8.07;;;1.42;;
36411;SDS011;22445;52.100;5.176;2023-09-19T02:19:34;9.80;;;1.80;;
36411;SDS011;22445;52.100;5.176;2023-09-19T02:22:00;7.55;;;1.35;;
36411;SDS011;22445;52.100;5.176;2023-09-19T02:24:31;8.68;;;2.35;;
36411;SDS011;22445;52.100;5.176;2023-09-19T02:26:56;7.28;;;1.73;;
36411;SDS011;22445;52.100;5.176;2023-09-19T02:29:22;5.93;;;1.95;;
36411;SDS011;22445;52.100;5.176;2023-09-19T02:31:48;10.60;;;1.88;;
36411;SDS011;22445;52.100;5.176;2023-09-19T02:34:13;8.23;;;1.60;;
36411;SDS011;22445;52.100;5.176;2023-09-19T02:36:41;7.43;;;1.75;;
36411;SDS011;22445;52.100;5.176;2023-09-19T02:39:09;11.05;;;2.53;;
36411;SDS011;22445;52.100;5.176;2023-09-19T02:41:36;8.25;;;1.98;;
36411;SDS011;22445;52.100;5.176;2023-09-19T02:44:01;9.50;;;1.58;;
36411;SDS011;22445;52.100;5.176;2023-09-19T02:46:27;11.02;;;1.88;;
36411;SDS011;22445;52.100;5.176;2023-09-19T02:48:53;11.63;;;2.15;;
36411;SDS011;22445;52.100;5.176;2023-09-19T02:51:19;9.98;;;1.80;;
36411;SDS011;22445;52.100;5.176;2023-09-19T02:53:45;10.52;;;2.22;;
36411;SDS011;22445;52.100;5.176;2023-09-19T02:56:12;7.07;;;1.95;;
36411;SDS011;22445;52.100;5.176;2023-09-19T02:58:38;11.00;;;2.28;;
36411;SDS011;22445;52.100;5.176;2023-09-19T03:01:08;4.38;;;1.48;;
36411;SDS011;22445;52.100;5.176;2023-09-19T03:03:36;8.90;;;2.10;;
36411;SDS011;22445;52.100;5.176;2023-09-19T03:06:03;8.82;;;2.28;;
36411;SDS011;22445;52.100;5.176;2023-09-19T03:08:29;7.97;;;2.17;;
36411;SDS011;22445;52.100;5.176;2023-09-19T03:10:54;10.60;;;2.03;;
36411;SDS011;22445;52.100;5.176;2023-09-19T03:13:20;10.70;;;2.10;;
36411;SDS011;22445;52.100;5.176;2023-09-19T03:15:46;9.57;;;1.90;;
36411;SDS011;22445;52.100;5.176;2023-09-19T03:18:12;10.05;;;2.88;;
36411;SDS011;22445;52.100;5.176;2023-09-19T03:20:38;14.57;;;2.78;;
36411;SDS011;22445;52.100;5.176;2023-09-19T03:23:04;11.40;;;1.95;;
36411;SDS011;22445;52.100;5.176;2023-09-19T03:25:31;9.45;;;2.13;;
36411;SDS011;22445;52.100;5.176;2023-09-19T03:27:59;9.77;;;2.50;;
36411;SDS011;22445;52.100;5.176;2023-09-19T03:30:25;11.40;;;1.88;;
36411;SDS011;22445;52.100;5.176;2023-09-19T03:32:51;10.75;;;2.40;;
36411;SDS011;22445;52.100;5.176;2023-09-19T03:35:17;14.15;;;3.55;;
36411;SDS011;22445;52.100;5.176;2023-09-19T03:37:43;11.70;;;2.33;;
36411;SDS011;22445;52.100;5.176;2023-09-19T03:40:09;6.75;;;2.45;;
36411;SDS011;22445;52.100;5.176;2023-09-19T03:42:37;8.48;;;2.05;;
36411;SDS011;22445;52.100;5.176;2023-09-19T03:45:03;10.48;;;1.95;;
36411;SDS011;22445;52.100;5.176;2023-09-19T03:47:30;5.78;;;1.88;;
36411;SDS011;22445;52.100;5.176;2023-09-19T03:49:56;7.40;;;2.13;;
36411;SDS011;22445;52.100;5.176;2023-09-19T03:52:21;8.68;;;2.08;;
36411;SDS011;22445;52.100;5.176;2023-09-19T03:54:47;9.98;;;2.30;;
36411;SDS011;22445;52.100;5.176;2023-09-19T03:57:12;12.25;;;2.15;;
36411;SDS011;22445;52.100;5.176;2023-09-19T03:59:41;8.52;;;2.15;;
36411;SDS011;22445;52.100;5.176;2023-09-19T04:02:08;12.35;;;2.47;;
36411;SDS011;22445;52.100;5.176;2023-09-19T04:04:38;19.75;;;2.15;;
36411;SDS011;22445;52.100;5.176;2023-09-19T04:07:03;11.88;;;1.95;;
36411;SDS011;22445;52.100;5.176;2023-09-19T04:09:29;8.80;;;1.77;;
36411;SDS011;22445;52.100;5.176;2023-09-19T04:11:54;11.82;;;2.58;;
36411;SDS011;22445;52.100;5.176;2023-09-19T04:14:20;11.27;;;1.65;;
36411;SDS011;22445;52.100;5.176;2023-09-19T04:16:45;11.48;;;1.60;;
36411;SDS011;22445;52.100;5.176;2023-09-19T04:19:11;16.48;;;2.50;;
36411;SDS011;22445;52.100;5.176;2023-09-19T04:21:37;9.80;;;2.17;;
36411;SDS011;22445;52.100;5.176;2023-09-19T04:24:03;11.80;;;2.47;;
36411;SDS011;22445;52.100;5.176;2023-09-19T04:26:29;7.35;;;1.80;;
36411;SDS011;22445;52.100;5.176;2023-09-19T04:28:54;12.82;;;3.03;;
36411;SDS011;22445;52.100;5.176;2023-09-19T04:31:21;9.13;;;1.88;;
36411;SDS011;22445;52.100;5.176;2023-09-19T04:33:47;7.80;;;2.17;;
36411;SDS011;22445;52.100;5.176;2023-09-19T04:36:12;14.18;;;1.90;;
36411;SDS011;22445;52.100;5.176;2023-09-19T04:38:38;11.07;;;2.50;;
36411;SDS011;22445;52.100;5.176;2023-09-19T04:41:03;9.00;;;2.47;;
36411;SDS011;22445;52.100;5.176;2023-09-19T04:43:29;11.18;;;2.22;;
36411;SDS011;22445;52.100;5.176;2023-09-19T04:45:55;13.40;;;2.67;;
36411;SDS011;22445;52.100;5.176;2023-09-19T04:48:23;8.55;;;2.08;;
36411;SDS011;22445;52.100;5.176;2023-09-19T04:50:49;7.90;;;1.70;;
36411;SDS011;22445;52.100;5.176;2023-09-19T04:53:16;7.07;;;1.85;;
36411;SDS011;22445;52.100;5.176;2023-09-19T04:55:42;7.20;;;1.63;;
36411;SDS011;22445;52.100;5.176;2023-09-19T04:58:11;10.93;;;2.75;;
36411;SDS011;22445;52.100;5.176;2023-09-19T05:00:36;7.47;;;1.95;;
36411;SDS011;22445;52.100;5.176;2023-09-19T05:03:02;8.57;;;1.70;;
36411;SDS011;22445;52.100;5.176;2023-09-19T05:05:29;10.75;;;2.22;;
36411;SDS011;22445;52.100;5.176;2023-09-19T05:07:55;12.88;;;2.17;;
36411;SDS011;22445;52.100;5.176;2023-09-19T05:10:20;8.43;;;2.25;;
36411;SDS011;22445;52.100;5.176;2023-09-19T05:12:46;8.65;;;1.60;;
36411;SDS011;22445;52.100;5.176;2023-09-19T05:15:13;8.35;;;2.38;;
36411;SDS011;22445;52.100;5.176;2023-09-19T05:17:48;9.20;;;2.05;;
36411;SDS011;22445;52.100;5.176;2023-09-19T05:20:19;9.77;;;2.25;;
36411;SDS011;22445;52.100;5.176;2023-09-19T05:23:06;5.82;;;1.92;;
36411;SDS011;22445;52.100;5.176;2023-09-19T05:25:37;4.82;;;2.05;;
36411;SDS011;22445;52.100;5.176;2023-09-19T05:28:07;9.73;;;2.03;;
36411;SDS011;22445;52.100;5.176;2023-09-19T05:30:34;8.52;;;1.98;;
36411;SDS011;22445;52.100;5.176;2023-09-19T05:33:08;10.20;;;2.25;;
36411;SDS011;22445;52.100;5.176;2023-09-19T05:35:34;13.45;;;3.55;;
36411;SDS011;22445;52.100;5.176;2023-09-19T05:38:02;15.02;;;2.15;;
36411;SDS011;22445;52.100;5.176;2023-09-19T05:40:27;8.10;;;1.92;;
36411;SDS011;22445;52.100;5.176;2023-09-19T05:42:53;5.15;;;1.77;;
36411;SDS011;22445;52.100;5.176;2023-09-19T05:45:18;8.70;;;2.13;;
36411;SDS011;22445;52.100;5.176;2023-09-19T05:47:47;8.13;;;1.88;;
36411;SDS011;22445;52.100;5.176;2023-09-19T05:50:15;6.85;;;2.17;;
36411;SDS011;22445;52.100;5.176;2023-09-19T05:52:41;8.98;;;2.15;;
36411;SDS011;22445;52.100;5.176;2023-09-19T05:55:09;9.05;;;2.20;;
36411;SDS011;22445;52.100;5.176;2023-09-19T05:57:36;12.77;;;2.38;;
36411;SDS011;22445;52.100;5.176;2023-09-19T06:00:04;17.70;;;2.63;;
36411;SDS011;22445;52.100;5.176;2023-09-19T06:02:37;5.57;;;1.90;;
36411;SDS011;22445;52.100;5.176;2023-09-19T06:05:06;6.40;;;2.15;;
36411;SDS011;22445;52.100;5.176;2023-09-19T06:07:35;10.07;;;2.22;;
36411;SDS011;22445;52.100;5.176;2023-09-19T06:10:03;13.98;;;2.65;;
36411;SDS011;22445;52.100;5.176;2023-09-19T06:12:31;8.93;;;1.88;;
36411;SDS011;22445;52.100;5.176;2023-09-19T06:14:58;20.30;;;2.50;;
36411;SDS011;22445;52.100;5.176;2023-09-19T06:17:24;12.60;;;2.03;;
36411;SDS011;22445;52.100;5.176;2023-09-19T06:19:52;8.43;;;1.85;;
36411;SDS011;22445;52.100;5.176;2023-09-19T06:22:18;10.10;;;2.30;;
36411;SDS011;22445;52.100;5.176;2023-09-19T06:24:44;8.25;;;1.77;;
36411;SDS011;22445;52.100;5.176;2023-09-19T06:27:10;8.25;;;2.05;;
36411;SDS011;22445;52.100;5.176;2023-09-19T06:29:36;13.40;;;2.85;;
36411;SDS011;22445;52.100;5.176;2023-09-19T06:32:06;15.35;;;2.03;;
36411;SDS011;22445;52.100;5.176;2023-09-19T06:34:35;6.63;;;1.92;;
36411;SDS011;22445;52.100;5.176;2023-09-19T06:37:02;11.15;;;2.42;;
36411;SDS011;22445;52.100;5.176;2023-09-19T06:39:28;10.25;;;2.20;;
36411;SDS011;22445;52.100;5.176;2023-09-19T06:41:53;11.23;;;2.30;;
36411;SDS011;22445;52.100;5.176;2023-09-19T06:44:19;13.27;;;2.28;;
36411;SDS011;22445;52.100;5.176;2023-09-19T06:46:47;8.35;;;2.10;;
36411;SDS011;22445;52.100;5.176;2023-09-19T06:49:16;10.40;;;2.20;;
36411;SDS011;22445;52.100;5.176;2023-09-19T06:51:42;6.00;;;2.00;;
36411;SDS011;22445;52.100;5.176;2023-09-19T06:54:09;9.63;;;1.65;;
36411;SDS011;22445;52.100;5.176;2023-09-19T06:56:37;10.70;;;2.17;;
36411;SDS011;22445;52.100;5.176;2023-09-19T06:59:03;12.32;;;2.47;;
36411;SDS011;22445;52.100;5.176;2023-09-19T07:01:31;9.68;;;2.10;;
36411;SDS011;22445;52.100;5.176;2023-09-19T07:03:57;7.70;;;1.98;;
36411;SDS011;22445;52.100;5.176;2023-09-19T07:06:22;16.55;;;2.67;;
36411;SDS011;22445;52.100;5.176;2023-09-19T07:08:49;7.55;;;1.60;;
36411;SDS011;22445;52.100;5.176;2023-09-19T07:11:15;10.65;;;2.40;;
36411;SDS011;22445;52.100;5.176;2023-09-19T07:13:41;9.05;;;2.08;;
36411;SDS011;22445;52.100;5.176;2023-09-19T07:16:06;9.10;;;2.05;;
36411;SDS011;22445;52.100;5.176;2023-09-19T07:18:34;10.02;;;2.97;;
36411;SDS011;22445;52.100;5.176;2023-09-19T07:20:59;6.75;;;1.77;;
36411;SDS011;22445;52.100;5.176;2023-09-19T07:23:30;8.02;;;2.10;;
36411;SDS011;22445;52.100;5.176;2023-09-19T07:26:00;8.75;;;2.15;;
36411;SDS011;22445;52.100;5.176;2023-09-19T07:28:30;13.00;;;2.72;;
36411;SDS011;22445;52.100;5.176;2023-09-19T07:30:56;10.95;;;2.35;;
36411;SDS011;22445;52.100;5.176;2023-09-19T07:33:22;10.60;;;2.33;;
36411;SDS011;22445;52.100;5.176;2023-09-19T07:35:50;9.77;;;2.20;;
36411;SDS011;22445;52.100;5.176;2023-09-19T07:38:15;11.55;;;2.83;;
36411;SDS011;22445;52.100;5.176;2023-09-19T07:40:41;5.85;;;2.00;;
36411;SDS011;22445;52.100;5.176;2023-09-19T07:43:07;11.45;;;2.20;;
36411;SDS011;22445;52.100;5.176;2023-09-19T07:45:33;6.43;;;1.75;;
36411;SDS011;22445;52.100;5.176;2023-09-19T07:47:59;9.70;;;2.78;;
36411;SDS011;22445;52.100;5.176;2023-09-19T07:50:29;14.98;;;3.00;;
36411;SDS011;22445;52.100;5.176;2023-09-19T07:52:55;18.80;;;2.75;;
36411;SDS011;22445;52.100;5.176;2023-09-19T07:55:21;11.52;;;2.22;;
36411;SDS011;22445;52.100;5.176;2023-09-19T07:57:53;9.82;;;3.10;;
36411;SDS011;22445;52.100;5.176;2023-09-19T08:00:19;10.82;;;2.42;;
36411;SDS011;22445;52.100;5.176;2023-09-19T08:02:45;10.70;;;2.90;;
36411;SDS011;22445;52.100;5.176;2023-09-19T08:05:11;7.55;;;2.10;;
36411;SDS011;22445;52.100;5.176;2023-09-19T08:07:41;6.93;;;1.90;;
36411;SDS011;22445;52.100;5.176;2023-09-19T08:10:07;7.40;;;2.40;;
36411;SDS011;22445;52.100;5.176;2023-09-19T08:12:38;11.38;;;2.13;;
36411;SDS011;22445;52.100;5.176;2023-09-19T08:15:11;11.60;;;2.30;;
36411;SDS011;22445;52.100;5.176;2023-09-19T08:17:59;12.07;;;2.85;;
36411;SDS011;22445;52.100;5.176;2023-09-19T08:20:25;10.45;;;2.58;;
36411;SDS011;22445;52.100;5.176;2023-09-19T08:22:51;13.02;;;2.40;;
36411;SDS011;22445;52.100;5.176;2023-09-19T08:25:19;9.68;;;2.40;;
36411;SDS011;22445;52.100;5.176;2023-09-19T08:27:47;13.05;;;2.50;;
36411;SDS011;22445;52.100;5.176;2023-09-19T08:30:23;12.80;;;2.15;;
36411;SDS011;22445;52.100;5.176;2023-09-19T08:32:49;12.73;;;2.70;;
36411;SDS011;22445;52.100;5.176;2023-09-19T08:35:15;12.93;;;2.72;;
36411;SDS011;22445;52.100;5.176;2023-09-19T08:37:44;11.43;;;2.75;;
36411;SDS011;22445;52.100;5.176;2023-09-19T08:40:11;10.60;;;2.78;;
36411;SDS011;22445;52.100;5.176;2023-09-19T08:42:53;9.48;;;2.90;;
36411;SDS011;22445;52.100;5.176;2023-09-19T08:45:23;11.70;;;2.65;;
36411;SDS011;22445;52.100;5.176;2023-09-19T08:50:43;9.02;;;2.45;;
36411;SDS011;22445;52.100;5.176;2023-09-19T08:53:50;10.73;;;3.33;;
36411;SDS011;22445;52.100;5.176;2023-09-19T08:56:11;7.93;;;2.00;;
36411;SDS011;22445;52.100;5.176;2023-09-19T08:58:39;9.57;;;2.45;;
36411;SDS011;22445;52.100;5.176;2023-09-19T09:01:29;8.75;;;1.98;;
36411;SDS011;22445;52.100;5.176;2023-09-19T09:03:57;8.80;;;2.30;;
36411;SDS011;22445;52.100;5.176;2023-09-19T09:06:24;9.38;;;2.55;;
36411;SDS011;22445;52.100;5.176;2023-09-19T09:08:50;10.23;;;2.60;;
36411;SDS011;22445;52.100;5.176;2023-09-19T09:11:17;8.30;;;2.47;;
36411;SDS011;22445;52.100;5.176;2023-09-19T09:13:46;8.18;;;2.40;;
36411;SDS011;22445;52.100;5.176;2023-09-19T09:16:13;12.80;;;2.35;;
36411;SDS011;22445;52.100;5.176;2023-09-19T09:18:39;10.30;;;2.47;;
36411;SDS011;22445;52.100;5.176;2023-09-19T09:21:06;14.23;;;2.60;;
36411;SDS011;22445;52.100;5.176;2023-09-19T09:23:31;11.25;;;2.10;;
36411;SDS011;22445;52.100;5.176;2023-09-19T09:25:57;8.07;;;2.30;;
36411;SDS011;22445;52.100;5.176;2023-09-19T09:28:33;9.13;;;2.28;;
36411;SDS011;22445;52.100;5.176;2023-09-19T09:31:00;6.80;;;2.50;;
36411;SDS011;22445;52.100;5.176;2023-09-19T09:33:33;11.40;;;2.25;;
36411;SDS011;22445;52.100;5.176;2023-09-19T09:36:00;7.82;;;2.00;;
36411;SDS011;22445;52.100;5.176;2023-09-19T09:38:28;8.27;;;2.50;;
36411;SDS011;22445;52.100;5.176;2023-09-19T09:41:14;12.45;;;2.35;;
36411;SDS011;22445;52.100;5.176;2023-09-19T09:43:52;8.05;;;1.90;;
36411;SDS011;22445;52.100;5.176;2023-09-19T09:46:19;7.85;;;2.40;;
36411;SDS011;22445;52.100;5.176;2023-09-19T09:49:06;7.68;;;1.98;;
36411;SDS011;22445;52.100;5.176;2023-09-19T09:52:01;8.68;;;2.53;;
36411;SDS011;22445;52.100;5.176;2023-09-19T09:57:33;12.68;;;2.70;;
36411;SDS011;22445;52.100;5.176;2023-09-19T10:00:00;10.18;;;2.83;;
36411;SDS011;22445;52.100;5.176;2023-09-19T10:02:55;7.97;;;2.47;;
36411;SDS011;22445;52.100;5.176;2023-09-19T10:05:21;9.88;;;2.40;;
36411;SDS011;22445;52.100;5.176;2023-09-19T10:08:10;7.85;;;1.67;;
36411;SDS011;22445;52.100;5.176;2023-09-19T10:10:40;7.53;;;2.17;;
36411;SDS011;22445;52.100;5.176;2023-09-19T10:13:27;6.00;;;2.28;;
36411;SDS011;22445;52.100;5.176;2023-09-19T10:15:54;11.23;;;2.22;;
36411;SDS011;22445;52.100;5.176;2023-09-19T10:18:21;7.38;;;1.70;;
36411;SDS011;22445;52.100;5.176;2023-09-19T10:20:48;11.85;;;2.33;;
36411;SDS011;22445;52.100;5.176;2023-09-19T10:23:15;6.47;;;1.58;;
36411;SDS011;22445;52.100;5.176;2023-09-19T10:25:47;5.47;;;1.55;;
36411;SDS011;22445;52.100;5.176;2023-09-19T10:28:15;6.05;;;1.80;;
36411;SDS011;22445;52.100;5.176;2023-09-19T10:30:55;8.82;;;1.60;;
36411;SDS011;22445;52.100;5.176;2023-09-19T10:33:23;8.00;;;1.98;;
36411;SDS011;22445;52.100;5.176;2023-09-19T10:35:52;7.78;;;2.72;;
36411;SDS011;22445;52.100;5.176;2023-09-19T10:38:25;6.18;;;1.48;;
36411;SDS011;22445;52.100;5.176;2023-09-19T10:40:55;6.22;;;2.60;;
36411;SDS011;22445;52.100;5.176;2023-09-19T10:43:26;16.20;;;2.95;;
36411;SDS011;22445;52.100;5.176;2023-09-19T10:45:56;10.05;;;1.75;;
36411;SDS011;22445;52.100;5.176;2023-09-19T10:48:29;6.13;;;2.05;;
36411;SDS011;22445;52.100;5.176;2023-09-19T10:51:10;7.68;;;2.10;;
36411;SDS011;22445;52.100;5.176;2023-09-19T10:53:58;6.38;;;1.40;;
36411;SDS011;22445;52.100;5.176;2023-09-19T10:56:38;8.07;;;1.80;;
36411;SDS011;22445;52.100;5.176;2023-09-19T10:59:16;5.25;;;1.77;;
36411;SDS011;22445;52.100;5.176;2023-09-19T11:01:50;7.03;;;1.80;;
36411;SDS011;22445;52.100;5.176;2023-09-19T11:04:35;6.68;;;1.80;;
36411;SDS011;22445;52.100;5.176;2023-09-19T11:07:10;4.63;;;1.48;;
36411;SDS011;22445;52.100;5.176;2023-09-19T11:27:11;6.78;;;1.23;;
36411;SDS011;22445;52.100;5.176;2023-09-19T11:29:43;5.75;;;1.50;;
36411;SDS011;22445;52.100;5.176;2023-09-19T11:32:08;4.45;;;1.35;;
36411;SDS011;22445;52.100;5.176;2023-09-19T11:34:47;7.00;;;1.45;;
36411;SDS011;22445;52.100;5.176;2023-09-19T11:40:21;3.95;;;1.08;;
36411;SDS011;22445;52.100;5.176;2023-09-19T11:42:47;4.72;;;1.23;;
36411;SDS011;22445;52.100;5.176;2023-09-19T11:48:26;6.45;;;1.17;;
36411;SDS011;22445;52.100;5.176;2023-09-19T11:50:52;5.70;;;1.73;;
36411;SDS011;22445;52.100;5.176;2023-09-19T11:53:18;3.22;;;1.02;;
36411;SDS011;22445;52.100;5.176;2023-09-19T11:55:45;6.25;;;1.50;;
36411;SDS011;22445;52.100;5.176;2023-09-19T11:58:11;5.70;;;1.83;;
36411;SDS011;22445;52.100;5.176;2023-09-19T12:00:39;3.63;;;1.23;;
36411;SDS011;22445;52.100;5.176;2023-09-19T12:03:10;5.15;;;1.08;;
36411;SDS011;22445;52.100;5.176;2023-09-19T12:05:36;3.40;;;0.80;;
36411;SDS011;22445;52.100;5.176;2023-09-19T12:08:07;4.10;;;1.42;;
36411;SDS011;22445;52.100;5.176;2023-09-19T12:10:44;3.22;;;1.17;;
36411;SDS011;22445;52.100;5.176;2023-09-19T12:13:15;7.40;;;1.30;;
36411;SDS011;22445;52.100;5.176;2023-09-19T12:15:41;4.10;;;1.23;;
36411;SDS011;22445;52.100;5.176;2023-09-19T12:18:10;7.60;;;1.50;;
36411;SDS011;22445;52.100;5.176;2023-09-19T12:26:51;6.90;;;1.50;;
36411;SDS011;22445;52.100;5.176;2023-09-19T12:29:22;5.90;;;1.40;;
36411;SDS011;22445;52.100;5.176;2023-09-19T12:31:51;3.50;;;0.90;;
36411;SDS011;22445;52.100;5.176;2023-09-19T12:34:21;4.28;;;1.17;;
36411;SDS011;22445;52.100;5.176;2023-09-19T12:36:48;5.25;;;1.40;;
36411;SDS011;22445;52.100;5.176;2023-09-19T12:39:31;7.00;;;0.85;;
36411;SDS011;22445;52.100;5.176;2023-09-19T12:41:57;6.30;;;1.13;;
36411;SDS011;22445;52.100;5.176;2023-09-19T12:44:23;6.45;;;1.10;;
36411;SDS011;22445;52.100;5.176;2023-09-19T12:46:50;4.82;;;1.00;;
36411;SDS011;22445;52.100;5.176;2023-09-19T12:49:16;3.78;;;1.42;;
36411;SDS011;22445;52.100;5.176;2023-09-19T12:51:42;4.93;;;1.40;;
36411;SDS011;22445;52.100;5.176;2023-09-19T12:54:08;4.10;;;0.93;;
36411;SDS011;22445;52.100;5.176;2023-09-19T12:56:42;7.70;;;1.02;;
36411;SDS011;22445;52.100;5.176;2023-09-19T12:59:11;7.90;;;1.10;;
36411;SDS011;22445;52.100;5.176;2023-09-19T13:01:39;4.30;;;1.02;;
36411;SDS011;22445;52.100;5.176;2023-09-19T13:04:23;6.57;;;1.08;;
36411;SDS011;22445;52.100;5.176;2023-09-19T13:06:53;5.20;;;0.98;;
36411;SDS011;22445;52.100;5.176;2023-09-19T13:09:20;4.60;;;0.82;;
36411;SDS011;22445;52.100;5.176;2023-09-19T13:11:49;2.63;;;1.13;;
36411;SDS011;22445;52.100;5.176;2023-09-19T13:14:29;5.57;;;1.25;;
36411;SDS011;22445;52.100;5.176;2023-09-19T13:17:06;6.40;;;1.15;;
36411;SDS011;22445;52.100;5.176;2023-09-19T13:19:47;3.20;;;0.90;;
36411;SDS011;22445;52.100;5.176;2023-09-19T13:25:31;4.40;;;1.20;;
36411;SDS011;22445;52.100;5.176;2023-09-19T13:27:58;4.78;;;0.90;;
36411;SDS011;22445;52.100;5.176;2023-09-19T13:30:27;3.90;;;1.27;;
36411;SDS011;22445;52.100;5.176;2023-09-19T13:33:06;3.40;;;0.95;;
36411;SDS011;22445;52.100;5.176;2023-09-19T13:35:35;2.75;;;1.10;;
36411;SDS011;22445;52.100;5.176;2023-09-19T13:38:03;3.20;;;0.90;;
36411;SDS011;22445;52.100;5.176;2023-09-19T13:40:29;1.33;;;0.60;;
36411;SDS011;22445;52.100;5.176;2023-09-19T13:42:56;4.35;;;1.20;;
36411;SDS011;22445;52.100;5.176;2023-09-19T13:45:21;6.90;;;1.48;;
36411;SDS011;22445;52.100;5.176;2023-09-19T13:47:49;3.25;;;1.20;;
36411;SDS011;22445;52.100;5.176;2023-09-19T13:50:15;2.35;;;0.80;;
36411;SDS011;22445;52.100;5.176;2023-09-19T13:52:42;4.72;;;1.17;;
36411;SDS011;22445;52.100;5.176;2023-09-19T13:55:08;2.50;;;0.90;;
36411;SDS011;22445;52.100;5.176;2023-09-19T13:57:33;4.50;;;1.00;;
36411;SDS011;22445;52.100;5.176;2023-09-19T13:59:59;3.42;;;1.17;;
36411;SDS011;22445;52.100;5.176;2023-09-19T14:02:25;5.25;;;1.23;;
36411;SDS011;22445;52.100;5.176;2023-09-19T14:04:51;2.88;;;0.95;;
36411;SDS011;22445;52.100;5.176;2023-09-19T14:07:17;3.65;;;1.52;;
36411;SDS011;22445;52.100;5.176;2023-09-19T14:09:43;4.35;;;1.00;;
36411;SDS011;22445;52.100;5.176;2023-09-19T14:12:09;6.53;;;1.70;;
36411;SDS011;22445;52.100;5.176;2023-09-19T14:14:35;8.77;;;1.30;;
36411;SDS011;22445;52.100;5.176;2023-09-19T14:17:02;3.45;;;1.40;;
36411;SDS011;22445;52.100;5.176;2023-09-19T14:19:29;4.68;;;1.15;;
36411;SDS011;22445;52.100;5.176;2023-09-19T14:21:55;4.22;;;1.25;;
36411;SDS011;22445;52.100;5.176;2023-09-19T14:24:20;4.85;;;1.35;;
36411;SDS011;22445;52.100;5.176;2023-09-19T14:26:47;4.78;;;1.38;;
36411;SDS011;22445;52.100;5.176;2023-09-19T14:29:13;6.95;;;1.80;;
36411;SDS011;22445;52.100;5.176;2023-09-19T14:31:39;3.17;;;1.30;;
36411;SDS011;22445;52.100;5.176;2023-09-19T14:34:05;3.67;;;1.70;;
36411;SDS011;22445;52.100;5.176;2023-09-19T14:36:31;4.63;;;1.55;;
36411;SDS011;22445;52.100;5.176;2023-09-19T14:38:57;5.32;;;1.55;;
36411;SDS011;22445;52.100;5.176;2023-09-19T14:41:22;5.93;;;1.70;;
36411;SDS011;22445;52.100;5.176;2023-09-19T14:43:51;4.13;;;1.38;;
36411;SDS011;22445;52.100;5.176;2023-09-19T14:46:20;5.88;;;1.88;;
36411;SDS011;22445;52.100;5.176;2023-09-19T14:48:46;6.47;;;1.38;;
36411;SDS011;22445;52.100;5.176;2023-09-19T14:51:12;4.07;;;1.30;;
36411;SDS011;22445;52.100;5.176;2023-09-19T14:53:39;3.75;;;0.98;;
36411;SDS011;22445;52.100;5.176;2023-09-19T14:56:09;5.90;;;1.65;;
36411;SDS011;22445;52.100;5.176;2023-09-19T14:58:35;13.50;;;2.22;;
36411;SDS011;22445;52.100;5.176;2023-09-19T15:01:05;5.05;;;1.52;;
36411;SDS011;22445;52.100;5.176;2023-09-19T15:03:34;2.38;;;1.10;;
36411;SDS011;22445;52.100;5.176;2023-09-19T15:06:03;7.00;;;1.50;;
36411;SDS011;22445;52.100;5.176;2023-09-19T15:08:30;4.00;;;1.23;;
36411;SDS011;22445;52.100;5.176;2023-09-19T15:11:06;4.50;;;1.40;;
36411;SDS011;22445;52.100;5.176;2023-09-19T15:13:33;3.75;;;1.52;;
36411;SDS011;22445;52.100;5.176;2023-09-19T15:16:02;5.85;;;1.70;;
36411;SDS011;22445;52.100;5.176;2023-09-19T15:18:29;3.85;;;1.30;;
36411;SDS011;22445;52.100;5.176;2023-09-19T15:21:01;5.15;;;1.45;;
36411;SDS011;22445;52.100;5.176;2023-09-19T15:23:29;4.57;;;1.58;;
36411;SDS011;22445;52.100;5.176;2023-09-19T15:25:56;7.10;;;1.83;;
36411;SDS011;22445;52.100;5.176;2023-09-19T15:28:22;3.95;;;1.60;;
36411;SDS011;22445;52.100;5.176;2023-09-19T15:30:48;6.65;;;1.60;;
36411;SDS011;22445;52.100;5.176;2023-09-19T15:33:14;6.47;;;1.50;;
36411;SDS011;22445;52.100;5.176;2023-09-19T15:35:40;6.75;;;1.77;;
36411;SDS011;22445;52.100;5.176;2023-09-19T15:38:06;4.05;;;1.38;;
36411;SDS011;22445;52.100;5.176;2023-09-19T15:40:32;5.38;;;1.40;;
36411;SDS011;22445;52.100;5.176;2023-09-19T15:42:58;6.20;;;2.10;;
36411;SDS011;22445;52.100;5.176;2023-09-19T15:45:25;6.57;;;1.60;;
36411;SDS011;22445;52.100;5.176;2023-09-19T15:47:51;5.85;;;1.73;;